sensor_id;sensor_type;location;lat;lon;timestamp;temperature;humidity
2497;DHT22;1259;48.306;14.374;2023-03-08T00:01:47;3.20;89.30
2497;DHT22;1259;48.306;14.374;2023-03-08T00:04:14;3.30;89.50
2497;DHT22;1259;48.306;14.374;2023-03-08T00:06:40;3.30;89.80
2497;DHT22;1259;48.306;14.374;2023-03-08T00:09:08;3.40;89.40
2497;DHT22;1259;48.306;14.374;2023-03-08T00:11:36;3.30;89.50
2497;DHT22;1259;48.306;14.374;2023-03-08T00:14:03;3.30;89.50
2497;DHT22;1259;48.306;14.374;2023-03-08T00:16:29;3.30;89.80
2497;DHT22;1259;48.306;14.374;2023-03-08T00:18:56;3.30;90.30
2497;DHT22;1259;48.306;14.374;2023-03-08T00:21:23;3.30;90.10
2497;DHT22;1259;48.306;14.374;2023-03-08T00:23:50;3.30;90.30
2497;DHT22;1259;48.306;14.374;2023-03-08T00:26:17;3.30;90.50
2497;DHT22;1259;48.306;14.374;2023-03-08T00:28:45;3.30;90.70
2497;DHT22;1259;48.306;14.374;2023-03-08T00:31:12;3.30;90.70
2497;DHT22;1259;48.306;14.374;2023-03-08T00:33:39;3.30;90.80
2497;DHT22;1259;48.306;14.374;2023-03-08T00:36:06;3.40;91.00
2497;DHT22;1259;48.306;14.374;2023-03-08T00:38:34;3.40;91.10
2497;DHT22;1259;48.306;14.374;2023-03-08T00:41:01;3.40;91.20
2497;DHT22;1259;48.306;14.374;2023-03-08T00:43:28;3.40;91.10
2497;DHT22;1259;48.306;14.374;2023-03-08T00:45:56;3.50;91.10
2497;DHT22;1259;48.306;14.374;2023-03-08T00:48:23;3.40;91.10
2497;DHT22;1259;48.306;14.374;2023-03-08T00:50:50;3.40;91.50
2497;DHT22;1259;48.306;14.374;2023-03-08T00:53:17;3.30;91.30
2497;DHT22;1259;48.306;14.374;2023-03-08T00:55:47;3.40;91.40
2497;DHT22;1259;48.306;14.374;2023-03-08T00:58:13;3.40;91.40
2497;DHT22;1259;48.306;14.374;2023-03-08T01:00:40;3.30;91.40
2497;DHT22;1259;48.306;14.374;2023-03-08T01:03:08;3.30;91.60
2497;DHT22;1259;48.306;14.374;2023-03-08T01:05:37;3.20;91.80
2497;DHT22;1259;48.306;14.374;2023-03-08T01:08:04;3.20;92.20
2497;DHT22;1259;48.306;14.374;2023-03-08T01:10:30;3.20;92.80
2497;DHT22;1259;48.306;14.374;2023-03-08T01:12:57;3.20;93.10
2497;DHT22;1259;48.306;14.374;2023-03-08T01:15:24;3.10;93.50
2497;DHT22;1259;48.306;14.374;2023-03-08T01:17:50;3.10;94.00
2497;DHT22;1259;48.306;14.374;2023-03-08T01:20:18;3.00;94.90
2497;DHT22;1259;48.306;14.374;2023-03-08T01:22:45;2.90;95.20
2497;DHT22;1259;48.306;14.374;2023-03-08T01:25:12;3.00;95.50
2497;DHT22;1259;48.306;14.374;2023-03-08T01:27:38;3.00;95.70
2497;DHT22;1259;48.306;14.374;2023-03-08T01:30:05;2.90;96.60
2497;DHT22;1259;48.306;14.374;2023-03-08T01:32:32;2.90;97.40
2497;DHT22;1259;48.306;14.374;2023-03-08T01:34:59;2.90;97.80
2497;DHT22;1259;48.306;14.374;2023-03-08T01:37:30;2.70;99.50
2497;DHT22;1259;48.306;14.374;2023-03-08T01:39:57;2.80;99.90
2497;DHT22;1259;48.306;14.374;2023-03-08T01:42:23;2.70;99.90
2497;DHT22;1259;48.306;14.374;2023-03-08T01:44:54;2.60;99.90
2497;DHT22;1259;48.306;14.374;2023-03-08T01:47:21;2.60;99.90
2497;DHT22;1259;48.306;14.374;2023-03-08T01:49:48;2.60;99.90
2497;DHT22;1259;48.306;14.374;2023-03-08T01:52:17;2.60;99.90
2497;DHT22;1259;48.306;14.374;2023-03-08T01:54:47;2.60;99.90
2497;DHT22;1259;48.306;14.374;2023-03-08T01:57:15;2.50;99.90
2497;DHT22;1259;48.306;14.374;2023-03-08T01:59:42;2.40;99.90
2497;DHT22;1259;48.306;14.374;2023-03-08T02:02:10;2.50;99.90
2497;DHT22;1259;48.306;14.374;2023-03-08T02:04:37;2.50;99.90
2497;DHT22;1259;48.306;14.374;2023-03-08T02:07:04;2.40;99.90
2497;DHT22;1259;48.306;14.374;2023-03-08T02:09:31;2.30;99.90
2497;DHT22;1259;48.306;14.374;2023-03-08T02:12:00;2.30;99.90
2497;DHT22;1259;48.306;14.374;2023-03-08T02:14:27;2.20;99.90
2497;DHT22;1259;48.306;14.374;2023-03-08T02:16:54;2.20;99.90
2497;DHT22;1259;48.306;14.374;2023-03-08T02:19:22;2.20;99.90
2497;DHT22;1259;48.306;14.374;2023-03-08T02:21:50;2.20;99.90
2497;DHT22;1259;48.306;14.374;2023-03-08T02:24:18;2.20;99.90
2497;DHT22;1259;48.306;14.374;2023-03-08T02:26:46;2.10;99.90
2497;DHT22;1259;48.306;14.374;2023-03-08T02:29:12;2.10;99.90
2497;DHT22;1259;48.306;14.374;2023-03-08T02:31:39;2.10;99.90
2497;DHT22;1259;48.306;14.374;2023-03-08T02:34:06;2.10;99.90
2497;DHT22;1259;48.306;14.374;2023-03-08T02:36:32;2.20;99.90
2497;DHT22;1259;48.306;14.374;2023-03-08T02:38:59;2.20;99.90
2497;DHT22;1259;48.306;14.374;2023-03-08T02:41:27;2.30;99.90
2497;DHT22;1259;48.306;14.374;2023-03-08T02:43:54;2.20;99.90
2497;DHT22;1259;48.306;14.374;2023-03-08T02:46:20;2.30;99.90
2497;DHT22;1259;48.306;14.374;2023-03-08T02:48:47;2.30;99.90
2497;DHT22;1259;48.306;14.374;2023-03-08T02:51:17;2.30;99.90
2497;DHT22;1259;48.306;14.374;2023-03-08T02:53:44;2.40;99.90
2497;DHT22;1259;48.306;14.374;2023-03-08T02:56:11;2.40;99.90
2497;DHT22;1259;48.306;14.374;2023-03-08T02:58:39;2.40;99.90
2497;DHT22;1259;48.306;14.374;2023-03-08T03:01:09;2.50;99.90
2497;DHT22;1259;48.306;14.374;2023-03-08T03:03:36;2.50;99.90
2497;DHT22;1259;48.306;14.374;2023-03-08T03:06:02;2.50;99.90
2497;DHT22;1259;48.306;14.374;2023-03-08T03:08:29;2.60;99.90
2497;DHT22;1259;48.306;14.374;2023-03-08T03:10:56;2.50;99.90
2497;DHT22;1259;48.306;14.374;2023-03-08T03:13:23;2.60;99.90
2497;DHT22;1259;48.306;14.374;2023-03-08T03:15:51;2.60;99.90
2497;DHT22;1259;48.306;14.374;2023-03-08T03:18:18;2.60;99.90
2497;DHT22;1259;48.306;14.374;2023-03-08T03:20:44;2.60;99.90
2497;DHT22;1259;48.306;14.374;2023-03-08T03:23:11;2.60;99.90
2497;DHT22;1259;48.306;14.374;2023-03-08T03:25:37;2.60;99.90
2497;DHT22;1259;48.306;14.374;2023-03-08T03:28:04;2.60;99.90
2497;DHT22;1259;48.306;14.374;2023-03-08T03:30:31;2.60;99.90
2497;DHT22;1259;48.306;14.374;2023-03-08T03:32:59;2.70;99.90
2497;DHT22;1259;48.306;14.374;2023-03-08T03:35:26;2.60;99.90
2497;DHT22;1259;48.306;14.374;2023-03-08T03:37:52;2.60;99.90
2497;DHT22;1259;48.306;14.374;2023-03-08T03:40:19;2.60;99.90
2497;DHT22;1259;48.306;14.374;2023-03-08T03:42:47;2.60;99.90
2497;DHT22;1259;48.306;14.374;2023-03-08T03:45:14;2.60;99.90
2497;DHT22;1259;48.306;14.374;2023-03-08T03:47:40;2.60;99.90
2497;DHT22;1259;48.306;14.374;2023-03-08T03:50:09;2.60;99.90
2497;DHT22;1259;48.306;14.374;2023-03-08T03:52:36;2.60;99.90
2497;DHT22;1259;48.306;14.374;2023-03-08T03:55:03;2.70;99.90
2497;DHT22;1259;48.306;14.374;2023-03-08T03:57:30;2.70;99.90
2497;DHT22;1259;48.306;14.374;2023-03-08T03:59:56;2.70;99.90
2497;DHT22;1259;48.306;14.374;2023-03-08T04:02:23;2.70;99.90
2497;DHT22;1259;48.306;14.374;2023-03-08T04:04:50;2.80;99.90
2497;DHT22;1259;48.306;14.374;2023-03-08T04:07:18;2.70;99.90
2497;DHT22;1259;48.306;14.374;2023-03-08T04:09:44;2.70;99.90
2497;DHT22;1259;48.306;14.374;2023-03-08T04:12:12;2.70;99.90
2497;DHT22;1259;48.306;14.374;2023-03-08T04:14:38;2.70;99.90
2497;DHT22;1259;48.306;14.374;2023-03-08T04:17:05;2.80;99.90
2497;DHT22;1259;48.306;14.374;2023-03-08T04:19:32;2.80;99.90
2497;DHT22;1259;48.306;14.374;2023-03-08T04:21:59;2.80;99.90
2497;DHT22;1259;48.306;14.374;2023-03-08T04:24:27;2.80;99.90
2497;DHT22;1259;48.306;14.374;2023-03-08T04:26:53;2.70;99.90
2497;DHT22;1259;48.306;14.374;2023-03-08T04:29:20;2.70;99.90
2497;DHT22;1259;48.306;14.374;2023-03-08T04:31:47;2.80;99.90
2497;DHT22;1259;48.306;14.374;2023-03-08T04:34:13;2.80;99.90
2497;DHT22;1259;48.306;14.374;2023-03-08T04:36:40;2.80;99.90
2497;DHT22;1259;48.306;14.374;2023-03-08T04:39:07;2.80;99.90
2497;DHT22;1259;48.306;14.374;2023-03-08T04:41:35;2.80;99.90
2497;DHT22;1259;48.306;14.374;2023-03-08T04:44:01;2.80;99.90
2497;DHT22;1259;48.306;14.374;2023-03-08T04:46:28;2.70;99.90
2497;DHT22;1259;48.306;14.374;2023-03-08T04:48:55;2.70;99.90
2497;DHT22;1259;48.306;14.374;2023-03-08T04:51:22;2.60;99.90
2497;DHT22;1259;48.306;14.374;2023-03-08T04:53:49;2.60;99.90
2497;DHT22;1259;48.306;14.374;2023-03-08T04:56:16;2.60;99.90
2497;DHT22;1259;48.306;14.374;2023-03-08T04:58:44;2.60;99.90
2497;DHT22;1259;48.306;14.374;2023-03-08T05:01:11;2.60;99.90
2497;DHT22;1259;48.306;14.374;2023-03-08T05:03:38;2.50;99.90
2497;DHT22;1259;48.306;14.374;2023-03-08T05:06:05;2.40;99.90
2497;DHT22;1259;48.306;14.374;2023-03-08T05:08:32;2.40;99.90
2497;DHT22;1259;48.306;14.374;2023-03-08T05:10:59;2.40;99.90
2497;DHT22;1259;48.306;14.374;2023-03-08T05:13:27;2.40;99.90
2497;DHT22;1259;48.306;14.374;2023-03-08T05:15:55;2.40;99.90
2497;DHT22;1259;48.306;14.374;2023-03-08T05:18:22;2.40;99.90
2497;DHT22;1259;48.306;14.374;2023-03-08T05:20:52;2.40;99.90
2497;DHT22;1259;48.306;14.374;2023-03-08T05:23:19;2.30;99.90
2497;DHT22;1259;48.306;14.374;2023-03-08T05:25:46;2.30;99.90
2497;DHT22;1259;48.306;14.374;2023-03-08T05:28:13;2.30;99.90
2497;DHT22;1259;48.306;14.374;2023-03-08T05:30:40;2.30;99.90
2497;DHT22;1259;48.306;14.374;2023-03-08T05:33:08;2.20;99.90
2497;DHT22;1259;48.306;14.374;2023-03-08T05:35:34;2.20;99.90
2497;DHT22;1259;48.306;14.374;2023-03-08T05:38:01;2.20;99.90
2497;DHT22;1259;48.306;14.374;2023-03-08T05:40:28;2.30;99.90
2497;DHT22;1259;48.306;14.374;2023-03-08T05:42:55;2.20;99.90
2497;DHT22;1259;48.306;14.374;2023-03-08T05:45:21;2.10;99.90
2497;DHT22;1259;48.306;14.374;2023-03-08T05:47:48;2.10;99.90
2497;DHT22;1259;48.306;14.374;2023-03-08T05:50:16;2.10;99.90
2497;DHT22;1259;48.306;14.374;2023-03-08T05:52:43;2.10;99.90
2497;DHT22;1259;48.306;14.374;2023-03-08T05:55:11;2.20;99.90
2497;DHT22;1259;48.306;14.374;2023-03-08T05:57:38;2.20;99.90
2497;DHT22;1259;48.306;14.374;2023-03-08T06:00:05;2.30;99.90
2497;DHT22;1259;48.306;14.374;2023-03-08T06:02:32;2.30;99.90
2497;DHT22;1259;48.306;14.374;2023-03-08T06:04:59;2.30;99.90
2497;DHT22;1259;48.306;14.374;2023-03-08T06:07:27;2.40;99.90
2497;DHT22;1259;48.306;14.374;2023-03-08T06:09:53;2.30;99.90
2497;DHT22;1259;48.306;14.374;2023-03-08T06:12:20;2.40;99.90
2497;DHT22;1259;48.306;14.374;2023-03-08T06:14:47;2.50;99.90
2497;DHT22;1259;48.306;14.374;2023-03-08T06:17:13;2.50;99.90
2497;DHT22;1259;48.306;14.374;2023-03-08T06:19:40;2.60;99.90
2497;DHT22;1259;48.306;14.374;2023-03-08T06:22:07;2.60;99.90
2497;DHT22;1259;48.306;14.374;2023-03-08T06:24:35;2.70;99.90
2497;DHT22;1259;48.306;14.374;2023-03-08T06:27:01;2.80;99.90
2497;DHT22;1259;48.306;14.374;2023-03-08T06:29:28;2.90;99.90
2497;DHT22;1259;48.306;14.374;2023-03-08T06:31:55;3.00;99.90
2497;DHT22;1259;48.306;14.374;2023-03-08T06:34:21;3.10;99.90
2497;DHT22;1259;48.306;14.374;2023-03-08T06:36:48;3.10;99.90
2497;DHT22;1259;48.306;14.374;2023-03-08T06:39:16;3.30;99.90
2497;DHT22;1259;48.306;14.374;2023-03-08T06:41:44;3.30;99.90
2497;DHT22;1259;48.306;14.374;2023-03-08T06:44:11;3.40;99.90
2497;DHT22;1259;48.306;14.374;2023-03-08T06:46:37;3.40;99.90
2497;DHT22;1259;48.306;14.374;2023-03-08T06:49:04;3.50;99.90
2497;DHT22;1259;48.306;14.374;2023-03-08T06:51:32;3.70;99.90
2497;DHT22;1259;48.306;14.374;2023-03-08T06:53:58;3.70;99.90
2497;DHT22;1259;48.306;14.374;2023-03-08T06:56:25;3.70;99.90
2497;DHT22;1259;48.306;14.374;2023-03-08T06:58:53;3.80;99.90
2497;DHT22;1259;48.306;14.374;2023-03-08T07:01:20;3.90;99.90
2497;DHT22;1259;48.306;14.374;2023-03-08T07:03:47;4.10;99.90
2497;DHT22;1259;48.306;14.374;2023-03-08T07:06:14;4.20;99.90
2497;DHT22;1259;48.306;14.374;2023-03-08T07:08:41;4.30;99.90
2497;DHT22;1259;48.306;14.374;2023-03-08T07:11:08;4.50;99.90
2497;DHT22;1259;48.306;14.374;2023-03-08T07:13:35;4.50;99.90
2497;DHT22;1259;48.306;14.374;2023-03-08T07:16:05;4.60;99.90
2497;DHT22;1259;48.306;14.374;2023-03-08T07:18:32;4.70;99.90
2497;DHT22;1259;48.306;14.374;2023-03-08T07:20:59;4.70;99.90
2497;DHT22;1259;48.306;14.374;2023-03-08T07:23:26;4.80;99.90
2497;DHT22;1259;48.306;14.374;2023-03-08T07:25:53;4.90;99.90
2497;DHT22;1259;48.306;14.374;2023-03-08T07:28:19;4.90;99.90
2497;DHT22;1259;48.306;14.374;2023-03-08T07:30:46;5.00;99.70
2497;DHT22;1259;48.306;14.374;2023-03-08T07:33:15;5.00;98.90
2497;DHT22;1259;48.306;14.374;2023-03-08T07:35:42;5.10;99.00
2497;DHT22;1259;48.306;14.374;2023-03-08T07:38:10;5.20;98.50
2497;DHT22;1259;48.306;14.374;2023-03-08T07:40:36;5.20;98.10
2497;DHT22;1259;48.306;14.374;2023-03-08T07:43:03;5.20;98.00
2497;DHT22;1259;48.306;14.374;2023-03-08T07:45:30;5.20;96.70
2497;DHT22;1259;48.306;14.374;2023-03-08T07:47:57;5.20;96.50
2497;DHT22;1259;48.306;14.374;2023-03-08T07:50:25;5.20;96.70
2497;DHT22;1259;48.306;14.374;2023-03-08T07:52:52;5.30;96.10
2497;DHT22;1259;48.306;14.374;2023-03-08T07:55:18;5.40;96.80
2497;DHT22;1259;48.306;14.374;2023-03-08T07:57:45;5.30;95.80
2497;DHT22;1259;48.306;14.374;2023-03-08T08:00:12;5.50;95.80
2497;DHT22;1259;48.306;14.374;2023-03-08T08:02:39;5.50;95.60
2497;DHT22;1259;48.306;14.374;2023-03-08T08:05:06;5.60;95.20
2497;DHT22;1259;48.306;14.374;2023-03-08T08:07:34;5.70;94.60
2497;DHT22;1259;48.306;14.374;2023-03-08T08:10:01;5.80;93.90
2497;DHT22;1259;48.306;14.374;2023-03-08T08:12:28;5.80;94.10
2497;DHT22;1259;48.306;14.374;2023-03-08T08:14:54;6.10;99.30
2497;DHT22;1259;48.306;14.374;2023-03-08T08:17:22;6.20;99.90
2497;DHT22;1259;48.306;14.374;2023-03-08T08:19:48;5.90;99.90
2497;DHT22;1259;48.306;14.374;2023-03-08T08:22:15;6.00;99.90
2497;DHT22;1259;48.306;14.374;2023-03-08T08:24:43;5.80;99.90
2497;DHT22;1259;48.306;14.374;2023-03-08T08:27:11;5.70;99.90
2497;DHT22;1259;48.306;14.374;2023-03-08T08:29:38;5.60;99.90
2497;DHT22;1259;48.306;14.374;2023-03-08T08:32:04;5.50;99.90
2497;DHT22;1259;48.306;14.374;2023-03-08T08:34:31;5.40;99.90
2497;DHT22;1259;48.306;14.374;2023-03-08T08:36:58;5.60;99.90
2497;DHT22;1259;48.306;14.374;2023-03-08T08:39:25;5.80;99.90
2497;DHT22;1259;48.306;14.374;2023-03-08T08:41:53;5.80;99.90
2497;DHT22;1259;48.306;14.374;2023-03-08T08:44:19;6.00;99.90
2497;DHT22;1259;48.306;14.374;2023-03-08T08:46:46;6.10;99.90
2497;DHT22;1259;48.306;14.374;2023-03-08T08:49:13;6.30;99.90
2497;DHT22;1259;48.306;14.374;2023-03-08T08:51:39;6.40;99.90
2497;DHT22;1259;48.306;14.374;2023-03-08T08:54:06;6.40;99.90
2497;DHT22;1259;48.306;14.374;2023-03-08T08:56:32;6.30;99.90
2497;DHT22;1259;48.306;14.374;2023-03-08T08:59:01;6.50;99.90
2497;DHT22;1259;48.306;14.374;2023-03-08T09:01:28;6.60;99.60
2497;DHT22;1259;48.306;14.374;2023-03-08T09:03:55;6.70;99.70
2497;DHT22;1259;48.306;14.374;2023-03-08T09:06:22;6.80;98.80
2497;DHT22;1259;48.306;14.374;2023-03-08T09:08:49;6.80;97.30
2497;DHT22;1259;48.306;14.374;2023-03-08T09:11:16;6.70;97.30
2497;DHT22;1259;48.306;14.374;2023-03-08T09:13:43;6.60;97.00
2497;DHT22;1259;48.306;14.374;2023-03-08T09:16:17;6.70;96.50
2497;DHT22;1259;48.306;14.374;2023-03-08T09:18:43;6.60;96.70
2497;DHT22;1259;48.306;14.374;2023-03-08T09:21:10;6.60;95.90
2497;DHT22;1259;48.306;14.374;2023-03-08T09:23:37;6.30;97.10
2497;DHT22;1259;48.306;14.374;2023-03-08T09:26:04;6.50;94.40
2497;DHT22;1259;48.306;14.374;2023-03-08T09:28:30;6.60;92.70
2497;DHT22;1259;48.306;14.374;2023-03-08T09:30:57;6.70;90.30
2497;DHT22;1259;48.306;14.374;2023-03-08T09:33:25;6.90;92.30
2497;DHT22;1259;48.306;14.374;2023-03-08T09:35:55;6.90;93.10
2497;DHT22;1259;48.306;14.374;2023-03-08T09:38:22;6.80;93.80
2497;DHT22;1259;48.306;14.374;2023-03-08T09:40:52;6.80;91.90
2497;DHT22;1259;48.306;14.374;2023-03-08T09:43:24;6.70;91.70
2497;DHT22;1259;48.306;14.374;2023-03-08T09:45:54;7.00;92.00
2497;DHT22;1259;48.306;14.374;2023-03-08T09:48:21;7.30;92.70
2497;DHT22;1259;48.306;14.374;2023-03-08T09:50:51;7.40;92.70
2497;DHT22;1259;48.306;14.374;2023-03-08T09:53:20;7.50;92.40
2497;DHT22;1259;48.306;14.374;2023-03-08T09:55:50;7.60;93.10
2497;DHT22;1259;48.306;14.374;2023-03-08T09:58:24;7.70;92.40
2497;DHT22;1259;48.306;14.374;2023-03-08T10:00:54;7.70;91.70
2497;DHT22;1259;48.306;14.374;2023-03-08T10:03:29;7.70;92.20
2497;DHT22;1259;48.306;14.374;2023-03-08T10:06:01;7.80;92.70
2497;DHT22;1259;48.306;14.374;2023-03-08T10:08:29;7.80;91.60
2497;DHT22;1259;48.306;14.374;2023-03-08T10:10:58;8.00;92.50
2497;DHT22;1259;48.306;14.374;2023-03-08T10:13:27;7.90;90.20
2497;DHT22;1259;48.306;14.374;2023-03-08T10:15:55;8.00;89.90
2497;DHT22;1259;48.306;14.374;2023-03-08T10:18:26;8.10;90.30
2497;DHT22;1259;48.306;14.374;2023-03-08T10:20:54;8.20;90.00
2497;DHT22;1259;48.306;14.374;2023-03-08T10:23:23;8.40;91.00
2497;DHT22;1259;48.306;14.374;2023-03-08T10:25:52;8.30;88.70
2497;DHT22;1259;48.306;14.374;2023-03-08T10:28:19;8.70;90.80
2497;DHT22;1259;48.306;14.374;2023-03-08T10:30:47;8.70;86.50
2497;DHT22;1259;48.306;14.374;2023-03-08T10:33:14;8.70;88.80
2497;DHT22;1259;48.306;14.374;2023-03-08T10:35:53;8.80;89.20
2497;DHT22;1259;48.306;14.374;2023-03-08T10:38:21;8.80;87.60
2497;DHT22;1259;48.306;14.374;2023-03-08T10:40:55;8.80;87.60
2497;DHT22;1259;48.306;14.374;2023-03-08T10:43:25;8.80;85.30
2497;DHT22;1259;48.306;14.374;2023-03-08T10:45:59;8.70;84.80
2497;DHT22;1259;48.306;14.374;2023-03-08T10:48:26;8.60;86.10
2497;DHT22;1259;48.306;14.374;2023-03-08T10:50:59;8.80;83.00
2497;DHT22;1259;48.306;14.374;2023-03-08T10:53:26;9.00;84.00
2497;DHT22;1259;48.306;14.374;2023-03-08T10:55:55;9.20;84.90
2497;DHT22;1259;48.306;14.374;2023-03-08T11:01:24;9.00;79.50
2497;DHT22;1259;48.306;14.374;2023-03-08T11:03:58;9.10;82.90
2497;DHT22;1259;48.306;14.374;2023-03-08T11:06:25;9.20;80.20
2497;DHT22;1259;48.306;14.374;2023-03-08T11:08:52;9.10;77.50
2497;DHT22;1259;48.306;14.374;2023-03-08T11:11:20;8.80;77.20
2497;DHT22;1259;48.306;14.374;2023-03-08T11:13:47;9.10;82.90
2497;DHT22;1259;48.306;14.374;2023-03-08T11:16:28;9.30;83.70
2497;DHT22;1259;48.306;14.374;2023-03-08T11:18:57;9.30;80.80
2497;DHT22;1259;48.306;14.374;2023-03-08T11:21:28;9.40;81.70
2497;DHT22;1259;48.306;14.374;2023-03-08T11:24:00;8.90;80.10
2497;DHT22;1259;48.306;14.374;2023-03-08T11:26:33;9.40;83.30
2497;DHT22;1259;48.306;14.374;2023-03-08T11:29:05;9.20;79.40
2497;DHT22;1259;48.306;14.374;2023-03-08T11:31:38;9.30;80.40
2497;DHT22;1259;48.306;14.374;2023-03-08T11:34:17;9.60;80.00
2497;DHT22;1259;48.306;14.374;2023-03-08T11:36:47;8.60;76.00
2497;DHT22;1259;48.306;14.374;2023-03-08T11:39:16;8.40;78.10
2497;DHT22;1259;48.306;14.374;2023-03-08T11:41:48;7.80;78.10
2497;DHT22;1259;48.306;14.374;2023-03-08T11:47:07;7.90;79.00
2497;DHT22;1259;48.306;14.374;2023-03-08T11:49:42;8.10;79.90
2497;DHT22;1259;48.306;14.374;2023-03-08T11:52:14;8.20;80.30
2497;DHT22;1259;48.306;14.374;2023-03-08T11:54:46;8.20;81.00
2497;DHT22;1259;48.306;14.374;2023-03-08T11:57:17;8.00;80.10
2497;DHT22;1259;48.306;14.374;2023-03-08T11:59:45;8.00;83.30
2497;DHT22;1259;48.306;14.374;2023-03-08T12:02:15;8.20;82.30
2497;DHT22;1259;48.306;14.374;2023-03-08T12:04:44;8.50;83.00
2497;DHT22;1259;48.306;14.374;2023-03-08T12:07:14;8.70;83.50
2497;DHT22;1259;48.306;14.374;2023-03-08T12:09:45;8.60;83.70
2497;DHT22;1259;48.306;14.374;2023-03-08T12:12:15;8.80;81.20
2497;DHT22;1259;48.306;14.374;2023-03-08T12:14:48;9.00;80.20
2497;DHT22;1259;48.306;14.374;2023-03-08T12:17:17;9.00;80.50
2497;DHT22;1259;48.306;14.374;2023-03-08T12:19:44;9.10;80.70
2497;DHT22;1259;48.306;14.374;2023-03-08T12:22:16;8.60;79.30
2497;DHT22;1259;48.306;14.374;2023-03-08T12:24:47;8.20;80.00
2497;DHT22;1259;48.306;14.374;2023-03-08T12:27:17;8.30;81.20
2497;DHT22;1259;48.306;14.374;2023-03-08T12:29:46;8.40;80.90
2497;DHT22;1259;48.306;14.374;2023-03-08T12:32:15;8.60;80.30
2497;DHT22;1259;48.306;14.374;2023-03-08T12:34:43;8.70;80.00
2497;DHT22;1259;48.306;14.374;2023-03-08T12:37:17;8.80;80.10
2497;DHT22;1259;48.306;14.374;2023-03-08T12:39:52;8.90;79.80
2497;DHT22;1259;48.306;14.374;2023-03-08T12:42:24;8.90;80.50
2497;DHT22;1259;48.306;14.374;2023-03-08T12:45:03;9.00;79.60
2497;DHT22;1259;48.306;14.374;2023-03-08T12:47:30;9.20;80.40
2497;DHT22;1259;48.306;14.374;2023-03-08T12:49:57;9.30;80.10
2497;DHT22;1259;48.306;14.374;2023-03-08T12:52:32;8.80;78.80
2497;DHT22;1259;48.306;14.374;2023-03-08T12:55:00;8.90;82.80
2497;DHT22;1259;48.306;14.374;2023-03-08T12:57:27;8.80;81.20
2497;DHT22;1259;48.306;14.374;2023-03-08T12:59:57;8.90;83.10
2497;DHT22;1259;48.306;14.374;2023-03-08T13:02:26;9.00;82.60
2497;DHT22;1259;48.306;14.374;2023-03-08T13:05:02;8.90;82.30
2497;DHT22;1259;48.306;14.374;2023-03-08T13:07:31;9.00;83.80
2497;DHT22;1259;48.306;14.374;2023-03-08T13:10:02;9.10;82.80
2497;DHT22;1259;48.306;14.374;2023-03-08T13:12:35;9.00;81.20
2497;DHT22;1259;48.306;14.374;2023-03-08T13:15:17;9.10;82.50
2497;DHT22;1259;48.306;14.374;2023-03-08T13:17:47;9.30;83.20
2497;DHT22;1259;48.306;14.374;2023-03-08T13:20:16;9.10;79.70
2497;DHT22;1259;48.306;14.374;2023-03-08T13:22:46;9.20;80.70
2497;DHT22;1259;48.306;14.374;2023-03-08T13:25:17;9.20;78.20
2497;DHT22;1259;48.306;14.374;2023-03-08T13:27:47;9.20;80.10
2497;DHT22;1259;48.306;14.374;2023-03-08T13:30:21;9.20;79.10
2497;DHT22;1259;48.306;14.374;2023-03-08T13:32:48;9.00;76.00
2497;DHT22;1259;48.306;14.374;2023-03-08T13:35:15;9.00;79.70
2497;DHT22;1259;48.306;14.374;2023-03-08T13:37:42;9.10;78.40
2497;DHT22;1259;48.306;14.374;2023-03-08T13:40:16;9.00;77.70
2497;DHT22;1259;48.306;14.374;2023-03-08T13:42:51;9.00;81.40
2497;DHT22;1259;48.306;14.374;2023-03-08T13:45:19;9.10;79.70
2497;DHT22;1259;48.306;14.374;2023-03-08T13:47:46;9.10;77.20
2497;DHT22;1259;48.306;14.374;2023-03-08T13:50:15;9.10;80.40
2497;DHT22;1259;48.306;14.374;2023-03-08T13:52:43;8.90;77.70
2497;DHT22;1259;48.306;14.374;2023-03-08T13:55:11;8.80;79.20
2497;DHT22;1259;48.306;14.374;2023-03-08T13:57:40;8.80;82.40
2497;DHT22;1259;48.306;14.374;2023-03-08T14:00:19;8.90;80.30
2497;DHT22;1259;48.306;14.374;2023-03-08T14:02:47;8.70;84.50
2497;DHT22;1259;48.306;14.374;2023-03-08T14:05:14;8.90;84.10
2497;DHT22;1259;48.306;14.374;2023-03-08T14:07:41;8.90;83.60
2497;DHT22;1259;48.306;14.374;2023-03-08T14:10:11;8.90;80.60
2497;DHT22;1259;48.306;14.374;2023-03-08T14:12:38;9.00;82.90
2497;DHT22;1259;48.306;14.374;2023-03-08T14:15:05;8.90;81.90
2497;DHT22;1259;48.306;14.374;2023-03-08T14:17:33;9.00;82.80
2497;DHT22;1259;48.306;14.374;2023-03-08T14:20:02;8.90;80.70
2497;DHT22;1259;48.306;14.374;2023-03-08T14:22:31;8.90;81.20
2497;DHT22;1259;48.306;14.374;2023-03-08T14:24:59;8.80;80.40
2497;DHT22;1259;48.306;14.374;2023-03-08T14:27:30;8.80;82.50
2497;DHT22;1259;48.306;14.374;2023-03-08T14:29:59;8.80;82.10
2497;DHT22;1259;48.306;14.374;2023-03-08T14:32:28;8.70;83.20
2497;DHT22;1259;48.306;14.374;2023-03-08T14:35:04;8.70;82.30
2497;DHT22;1259;48.306;14.374;2023-03-08T14:37:31;8.60;82.10
2497;DHT22;1259;48.306;14.374;2023-03-08T14:40:13;8.50;81.30
2497;DHT22;1259;48.306;14.374;2023-03-08T14:42:44;8.70;83.00
2497;DHT22;1259;48.306;14.374;2023-03-08T14:45:16;8.60;83.60
2497;DHT22;1259;48.306;14.374;2023-03-08T14:47:47;8.70;84.10
2497;DHT22;1259;48.306;14.374;2023-03-08T14:50:20;8.60;82.40
2497;DHT22;1259;48.306;14.374;2023-03-08T14:52:48;8.70;83.90
2497;DHT22;1259;48.306;14.374;2023-03-08T14:55:19;8.70;84.80
2497;DHT22;1259;48.306;14.374;2023-03-08T14:57:46;8.80;84.50
2497;DHT22;1259;48.306;14.374;2023-03-08T15:00:14;8.70;82.20
2497;DHT22;1259;48.306;14.374;2023-03-08T15:02:41;8.60;81.70
2497;DHT22;1259;48.306;14.374;2023-03-08T15:05:11;8.60;82.90
2497;DHT22;1259;48.306;14.374;2023-03-08T15:07:39;8.40;85.20
2497;DHT22;1259;48.306;14.374;2023-03-08T15:10:06;8.60;85.10
2497;DHT22;1259;48.306;14.374;2023-03-08T15:12:33;8.60;84.50
2497;DHT22;1259;48.306;14.374;2023-03-08T15:15:00;8.70;84.50
2497;DHT22;1259;48.306;14.374;2023-03-08T15:17:26;8.70;83.70
2497;DHT22;1259;48.306;14.374;2023-03-08T15:19:53;8.70;84.20
2497;DHT22;1259;48.306;14.374;2023-03-08T15:22:20;8.60;84.30
2497;DHT22;1259;48.306;14.374;2023-03-08T15:24:48;8.70;83.60
2497;DHT22;1259;48.306;14.374;2023-03-08T15:27:14;8.70;83.40
2497;DHT22;1259;48.306;14.374;2023-03-08T15:29:41;8.50;83.60
2497;DHT22;1259;48.306;14.374;2023-03-08T15:32:08;8.70;84.10
2497;DHT22;1259;48.306;14.374;2023-03-08T15:34:34;8.60;84.40
2497;DHT22;1259;48.306;14.374;2023-03-08T15:37:01;8.50;85.60
2497;DHT22;1259;48.306;14.374;2023-03-08T15:39:28;8.60;86.10
2497;DHT22;1259;48.306;14.374;2023-03-08T15:41:56;8.70;84.50
2497;DHT22;1259;48.306;14.374;2023-03-08T15:44:22;8.60;84.60
2497;DHT22;1259;48.306;14.374;2023-03-08T15:46:49;8.60;84.20
2497;DHT22;1259;48.306;14.374;2023-03-08T15:49:16;8.50;84.80
2497;DHT22;1259;48.306;14.374;2023-03-08T15:51:42;8.50;86.80
2497;DHT22;1259;48.306;14.374;2023-03-08T15:54:09;8.60;88.20
2497;DHT22;1259;48.306;14.374;2023-03-08T15:56:36;8.50;87.60
2497;DHT22;1259;48.306;14.374;2023-03-08T15:59:04;8.50;89.70
2497;DHT22;1259;48.306;14.374;2023-03-08T16:01:30;8.20;89.80
2497;DHT22;1259;48.306;14.374;2023-03-08T16:03:58;8.30;90.90
2497;DHT22;1259;48.306;14.374;2023-03-08T16:06:24;8.20;91.70
2497;DHT22;1259;48.306;14.374;2023-03-08T16:08:51;8.20;90.90
2497;DHT22;1259;48.306;14.374;2023-03-08T16:11:18;8.20;90.90
2497;DHT22;1259;48.306;14.374;2023-03-08T16:13:47;8.20;91.50